Time;durP1;ratioP1;P1;durP2;ratioP2;P2;SDS_P1;SDS_P2;PMS_P1;PMS_P2;Temp;Humidity;BMP_temperature;BMP_pressure;BME280_temperature;BME280_humidity;BME280_pressure;Samples;Min_cycle;Max_cycle;Signal;HPM_P1;HPM_P2
2021/09/20 00:00:23;;;;;;;14.77;5.70;;;;;;;;;;4920909;29;20027;-79
2021/09/20 00:02:51;;;;;;;9.95;6.00;;;;;;;;;;4920331;29;20036;-80
2021/09/20 00:05:18;;;;;;;12.27;5.40;;;;;;;;;;4903213;29;20040;-80
2021/09/20 00:07:46;;;;;;;9.05;5.50;;;;;;;;;;4920702;29;20453;-80
2021/09/20 00:10:15;;;;;;;10.57;5.30;;;;;;;;;;4920180;29;20028;-79
2021/09/20 00:12:43;;;;;;;15.40;6.72;;;;;;;;;;4920168;29;20160;-80
2021/09/20 00:15:11;;;;;;;11.48;5.72;;;;;;;;;;4896635;29;20087;-80
2021/09/20 00:17:38;;;;;;;12.15;6.93;;;;;;;;;;4883093;29;20025;-80
2021/09/20 00:20:07;;;;;;;12.07;6.43;;;;;;;;;;4896863;29;20040;-80
2021/09/20 00:22:37;;;;;;;9.77;5.90;;;;;;;;;;4883017;29;20184;-80
2021/09/20 00:25:06;;;;;;;13.45;5.80;;;;;;;;;;4882835;29;20068;-79
2021/09/20 00:27:32;;;;;;;11.52;6.43;;;;;;;;;;4882773;29;20119;-78
2021/09/20 00:30:00;;;;;;;12.18;6.15;;;;;;;;;;4882846;29;20033;-79
2021/09/20 00:32:29;;;;;;;13.77;6.60;;;;;;;;;;4882190;29;20029;-79
2021/09/20 00:34:55;;;;;;;10.27;6.03;;;;;;;;;;4882195;29;20058;-80
2021/09/20 00:37:23;;;;;;;12.70;6.35;;;;;;;;;;4882171;29;20490;-80
2021/09/20 00:39:52;;;;;;;12.52;6.80;;;;;;;;;;4896524;29;20505;-80
2021/09/20 00:42:19;;;;;;;15.63;7.20;;;;;;;;;;4895645;29;20474;-80
2021/09/20 00:44:47;;;;;;;14.57;7.35;;;;;;;;;;4896281;29;20483;-80
2021/09/20 00:47:13;;;;;;;11.88;7.00;;;;;;;;;;4882048;29;20017;-80
2021/09/20 00:49:42;;;;;;;12.35;6.28;;;;;;;;;;4882014;29;20036;-80
2021/09/20 00:52:11;;;;;;;13.20;6.95;;;;;;;;;;4882010;29;20500;-80
2021/09/20 00:54:38;;;;;;;16.65;7.82;;;;;;;;;;4881879;29;20075;-80
2021/09/20 00:57:06;;;;;;;13.30;6.93;;;;;;;;;;4882400;29;20029;-80
2021/09/20 00:59:35;;;;;;;13.07;7.30;;;;;;;;;;4882422;29;20097;-80
2021/09/20 01:02:03;;;;;;;17.52;8.13;;;;;;;;;;4881860;29;20053;-80
2021/09/20 01:04:31;;;;;;;13.60;7.70;;;;;;;;;;4896061;29;20040;-80
2021/09/20 01:06:59;;;;;;;16.27;8.38;;;;;;;;;;4881716;29;20100;-81
2021/09/20 01:09:27;;;;;;;15.13;8.10;;;;;;;;;;4881638;29;20073;-81
2021/09/20 01:11:55;;;;;;;12.93;7.18;;;;;;;;;;4881682;29;20032;-81
2021/09/20 01:14:24;;;;;;;16.48;7.35;;;;;;;;;;4895867;29;20036;-81
2021/09/20 01:16:52;;;;;;;13.70;7.50;;;;;;;;;;4917120;29;20048;-79
2021/09/20 01:19:20;;;;;;;15.82;7.03;;;;;;;;;;4919126;29;20087;-81
2021/09/20 01:21:48;;;;;;;16.45;8.48;;;;;;;;;;4918943;29;20024;-80
2021/09/20 01:24:16;;;;;;;17.25;7.68;;;;;;;;;;4901807;29;20489;-78
2021/09/20 01:26:45;;;;;;;17.05;7.75;;;;;;;;;;4918936;29;20024;-79
2021/09/20 01:29:13;;;;;;;17.17;6.82;;;;;;;;;;4919310;29;20028;-79
2021/09/20 01:31:41;;;;;;;15.88;7.60;;;;;;;;;;4918886;29;20149;-80
2021/09/20 01:34:09;;;;;;;13.13;7.15;;;;;;;;;;4918734;29;20039;-81
2021/09/20 01:36:38;;;;;;;13.55;7.43;;;;;;;;;;4919142;29;20032;-81
2021/09/20 01:39:15;;;;;;;18.25;7.75;;;;;;;;;;4901625;29;20036;-82
2021/09/20 01:41:43;;;;;;;15.40;8.05;;;;;;;;;;4901649;29;20164;-81
2021/09/20 01:44:11;;;;;;;16.27;7.80;;;;;;;;;;4901540;29;20576;-82
2021/09/20 01:46:41;;;;;;;15.00;7.85;;;;;;;;;;4901537;29;20046;-82
2021/09/20 01:49:09;;;;;;;11.65;7.10;;;;;;;;;;4901494;29;20388;-79
2021/09/20 01:51:36;;;;;;;14.50;6.82;;;;;;;;;;4918432;29;20024;-78
2021/09/20 01:54:05;;;;;;;13.70;7.53;;;;;;;;;;4901415;29;20433;-79
2021/09/20 01:56:33;;;;;;;13.07;7.00;;;;;;;;;;4918387;29;20024;-79
2021/09/20 01:59:02;;;;;;;15.70;6.85;;;;;;;;;;4918356;29;20028;-80
2021/09/20 02:01:30;;;;;;;12.82;6.70;;;;;;;;;;4901270;29;20032;-80
2021/09/20 02:03:59;;;;;;;13.20;6.90;;;;;;;;;;4918085;29;20517;-80
2021/09/20 02:06:26;;;;;;;10.43;6.28;;;;;;;;;;4918254;29;20099;-79
2021/09/20 02:08:55;;;;;;;13.63;8.07;;;;;;;;;;4918246;29;20565;-80
2021/09/20 02:11:22;;;;;;;12.02;6.50;;;;;;;;;;4918183;29;20036;-78
2021/09/20 02:13:52;;;;;;;12.23;6.88;;;;;;;;;;4901025;29;20441;-79
2021/09/20 02:16:20;;;;;;;11.93;6.57;;;;;;;;;;4917711;29;20135;-79
2021/09/20 02:18:46;;;;;;;17.58;6.95;;;;;;;;;;4917926;29;20039;-79
2021/09/20 02:21:17;;;;;;;20.63;7.30;;;;;;;;;;4917871;29;20028;-77
2021/09/20 02:23:43;;;;;;;13.20;6.88;;;;;;;;;;4917893;29;20078;-78
2021/09/20 02:26:12;;;;;;;14.63;7.20;;;;;;;;;;4900795;29;20043;-80
2021/09/20 02:28:39;;;;;;;13.10;7.40;;;;;;;;;;4917853;29;20028;-80
2021/09/20 02:31:08;;;;;;;14.95;6.60;;;;;;;;;;4917809;29;20035;-80
2021/09/20 02:33:37;;;;;;;13.43;7.40;;;;;;;;;;4917637;29;20397;-80
2021/09/20 02:36:06;;;;;;;15.13;8.18;;;;;;;;;;4917709;29;20069;-80
2021/09/20 02:38:35;;;;;;;13.18;8.40;;;;;;;;;;4900616;29;20024;-80
2021/09/20 02:41:04;;;;;;;15.13;7.47;;;;;;;;;;4900658;29;20393;-80
2021/09/20 02:43:33;;;;;;;12.63;7.32;;;;;;;;;;4900564;29;20055;-80
2021/09/20 02:46:01;;;;;;;19.52;8.25;;;;;;;;;;4917641;29;20032;-80
2021/09/20 02:48:29;;;;;;;13.10;7.20;;;;;;;;;;4900591;29;20035;-80
2021/09/20 02:50:57;;;;;;;12.93;7.40;;;;;;;;;;4918046;29;20156;-80
2021/09/20 02:53:26;;;;;;;13.85;7.22;;;;;;;;;;4917471;29;20111;-80
2021/09/20 02:55:54;;;;;;;12.18;6.45;;;;;;;;;;4900556;29;20182;-80
2021/09/20 02:58:22;;;;;;;13.55;7.47;;;;;;;;;;4917457;29;20031;-82
2021/09/20 03:00:50;;;;;;;13.82;7.47;;;;;;;;;;4917997;29;20028;-81
2021/09/20 03:03:18;;;;;;;12.60;6.63;;;;;;;;;;4917142;29;20450;-81
2021/09/20 03:05:45;;;;;;;15.63;7.63;;;;;;;;;;4900236;29;20035;-81
2021/09/20 03:08:11;;;;;;;15.65;7.32;;;;;;;;;;4917270;29;20028;-81
2021/09/20 03:10:39;;;;;;;10.73;6.63;;;;;;;;;;4900283;29;20527;-80
2021/09/20 03:13:07;;;;;;;12.35;7.40;;;;;;;;;;4917158;29;20075;-80
2021/09/20 03:15:33;;;;;;;15.10;7.28;;;;;;;;;;4916744;29;20087;-80
2021/09/20 03:18:01;;;;;;;13.85;6.88;;;;;;;;;;4917671;29;20029;-79
2021/09/20 03:20:29;;;;;;;12.55;6.53;;;;;;;;;;4917147;29;20359;-79
2021/09/20 03:22:57;;;;;;;15.85;8.10;;;;;;;;;;4917120;29;20544;-79
2021/09/20 03:25:25;;;;;;;12.32;5.65;;;;;;;;;;4916937;29;20087;-79
2021/09/20 03:27:54;;;;;;;13.60;6.95;;;;;;;;;;4917090;29;20028;-79
2021/09/20 03:30:22;;;;;;;12.48;6.35;;;;;;;;;;4917349;29;20103;-79
2021/09/20 03:32:50;;;;;;;10.68;6.65;;;;;;;;;;4917027;29;20075;-79
2021/09/20 03:35:18;;;;;;;11.13;6.80;;;;;;;;;;4900071;29;20050;-80
2021/09/20 03:37:47;;;;;;;10.73;6.72;;;;;;;;;;4917010;29;20075;-79
2021/09/20 03:40:16;;;;;;;12.07;6.20;;;;;;;;;;4917515;29;20484;-80
2021/09/20 03:42:45;;;;;;;15.52;6.95;;;;;;;;;;4917466;29;20024;-80
2021/09/20 03:45:13;;;;;;;11.20;5.97;;;;;;;;;;4917411;29;20040;-80
2021/09/20 03:47:41;;;;;;;10.75;5.95;;;;;;;;;;4917468;29;20536;-80
2021/09/20 03:50:10;;;;;;;11.27;6.07;;;;;;;;;;4899977;29;20144;-80
2021/09/20 03:52:39;;;;;;;11.73;6.60;;;;;;;;;;4916885;29;20028;-80
2021/09/20 03:55:07;;;;;;;10.40;5.97;;;;;;;;;;4916843;29;20028;-80
2021/09/20 03:57:35;;;;;;;11.75;7.30;;;;;;;;;;4916800;29;20248;-80
2021/09/20 04:00:02;;;;;;;9.85;6.18;;;;;;;;;;4916815;29;20114;-80
2021/09/20 04:02:29;;;;;;;10.90;6.45;;;;;;;;;;4916747;29;20058;-80
2021/09/20 04:04:58;;;;;;;11.23;5.93;;;;;;;;;;4917505;29;20089;-81
2021/09/20 04:07:26;;;;;;;10.50;5.95;;;;;;;;;;4917854;29;20079;-81
2021/09/20 04:09:54;;;;;;;10.32;6.15;;;;;;;;;;4917263;29;20385;-81
2021/09/20 04:12:21;;;;;;;13.10;7.28;;;;;;;;;;4916740;29;20479;-81
2021/09/20 04:14:48;;;;;;;10.95;5.78;;;;;;;;;;4916924;29;20027;-80
2021/09/20 04:17:16;;;;;;;10.40;6.32;;;;;;;;;;4919879;29;20099;-80
2021/09/20 04:19:44;;;;;;;13.23;6.45;;;;;;;;;;4920599;29;20418;-81
2021/09/20 04:22:12;;;;;;;9.25;5.53;;;;;;;;;;4920077;29;20032;-80
2021/09/20 04:24:38;;;;;;;10.55;6.40;;;;;;;;;;4919874;29;20088;-78
2021/09/20 04:27:05;;;;;;;11.48;6.53;;;;;;;;;;4920048;29;20532;-79
2021/09/20 04:29:31;;;;;;;9.52;6.15;;;;;;;;;;4902822;29;20032;-79
2021/09/20 04:32:06;;;;;;;11.20;6.88;;;;;;;;;;4902839;29;20032;-80
2021/09/20 04:34:34;;;;;;;9.27;6.10;;;;;;;;;;4902752;29;20064;-80
2021/09/20 04:37:02;;;;;;;9.48;6.90;;;;;;;;;;4919761;29;20534;-80
2021/09/20 04:39:30;;;;;;;9.57;6.35;;;;;;;;;;4919744;29;20036;-80
2021/09/20 04:41:57;;;;;;;10.85;6.38;;;;;;;;;;4919717;29;20028;-81
2021/09/20 04:44:25;;;;;;;11.35;7.45;;;;;;;;;;4919585;29;20028;-80
2021/09/20 04:46:53;;;;;;;10.95;6.97;;;;;;;;;;4919558;29;20069;-80
2021/09/20 04:49:21;;;;;;;12.52;7.13;;;;;;;;;;4902598;29;20032;-80
2021/09/20 04:51:50;;;;;;;13.43;7.85;;;;;;;;;;4919454;29;20024;-80
2021/09/20 04:54:17;;;;;;;10.80;5.93;;;;;;;;;;4919467;29;20033;-79
2021/09/20 04:56:43;;;;;;;12.60;7.10;;;;;;;;;;4919878;29;20496;-81
2021/09/20 04:59:12;;;;;;;10.55;6.47;;;;;;;;;;4919439;29;20111;-80
2021/09/20 05:01:39;;;;;;;9.05;5.95;;;;;;;;;;4919347;29;20492;-79
2021/09/20 05:04:09;;;;;;;12.00;6.65;;;;;;;;;;4919182;29;20401;-79
2021/09/20 05:06:37;;;;;;;10.05;6.70;;;;;;;;;;4919752;29;20028;-79
2021/09/20 05:09:06;;;;;;;10.32;5.88;;;;;;;;;;4902224;29;20051;-79
2021/09/20 05:11:34;;;;;;;12.30;6.82;;;;;;;;;;4902322;29;20536;-80
2021/09/20 05:14:02;;;;;;;13.40;6.30;;;;;;;;;;4902092;29;20397;-79
2021/09/20 05:16:28;;;;;;;9.10;6.13;;;;;;;;;;4895684;29;20559;-78
2021/09/20 05:18:56;;;;;;;9.43;6.32;;;;;;;;;;4895825;29;20132;-80
2021/09/20 05:21:22;;;;;;;11.57;6.70;;;;;;;;;;4881326;29;20025;-80
2021/09/20 05:23:50;;;;;;;11.45;6.45;;;;;;;;;;4881817;29;20037;-78
2021/09/20 05:26:17;;;;;;;9.75;6.18;;;;;;;;;;4881202;29;20048;-79
2021/09/20 05:28:44;;;;;;;11.40;6.35;;;;;;;;;;4881192;29;20029;-82
2021/09/20 05:31:11;;;;;;;9.15;6.25;;;;;;;;;;4881317;29;20040;-80
2021/09/20 05:33:37;;;;;;;9.90;6.75;;;;;;;;;;4881140;29;20474;-79
2021/09/20 05:36:03;;;;;;;13.52;6.97;;;;;;;;;;4879734;29;20041;-78
2021/09/20 05:38:31;;;;;;;12.20;6.57;;;;;;;;;;4880511;29;20025;-79
2021/09/20 05:40:57;;;;;;;13.98;7.15;;;;;;;;;;4895413;29;20406;-87
2021/09/20 05:43:25;;;;;;;14.68;6.57;;;;;;;;;;4882176;29;20031;-76
2021/09/20 05:45:51;;;;;;;13.20;7.18;;;;;;;;;;4880984;29;20040;-74
2021/09/20 05:48:18;;;;;;;10.07;6.60;;;;;;;;;;4879779;29;20074;-76
2021/09/20 05:50:45;;;;;;;9.98;6.07;;;;;;;;;;4880778;29;20029;-77
2021/09/20 05:53:11;;;;;;;10.68;6.88;;;;;;;;;;4879530;29;20033;-81
2021/09/20 05:55:37;;;;;;;10.75;6.38;;;;;;;;;;4880968;29;20051;-77
2021/09/20 05:58:03;;;;;;;12.52;6.72;;;;;;;;;;4879478;29;20458;-78
2021/09/20 06:00:29;;;;;;;12.20;6.75;;;;;;;;;;4880729;29;20056;-75
2021/09/20 06:02:56;;;;;;;10.68;7.15;;;;;;;;;;4879959;29;20025;-75
2021/09/20 06:05:22;;;;;;;10.27;6.95;;;;;;;;;;4880773;29;20037;-75
2021/09/20 06:07:48;;;;;;;11.85;7.38;;;;;;;;;;4880571;29;20112;-75
2021/09/20 06:10:16;;;;;;;12.27;7.00;;;;;;;;;;4879294;29;20041;-78
2021/09/20 06:12:42;;;;;;;13.35;7.32;;;;;;;;;;4879161;29;20562;-76
2021/09/20 06:15:09;;;;;;;13.77;7.57;;;;;;;;;;4883084;29;20045;-76
2021/09/20 06:17:36;;;;;;;11.13;7.00;;;;;;;;;;4897853;29;20029;-79
2021/09/20 06:20:03;;;;;;;12.25;7.05;;;;;;;;;;4897684;29;20496;-75
2021/09/20 06:22:29;;;;;;;15.20;8.23;;;;;;;;;;4897722;29;20532;-75
2021/09/20 06:24:57;;;;;;;12.23;7.47;;;;;;;;;;4897604;29;20096;-83
2021/09/20 06:27:23;;;;;;;13.73;8.35;;;;;;;;;;4899159;29;20029;-82
2021/09/20 06:29:50;;;;;;;12.30;8.15;;;;;;;;;;4897688;29;20115;-79
2021/09/20 06:32:16;;;;;;;12.55;7.55;;;;;;;;;;4897584;29;20020;-81
2021/09/20 06:34:42;;;;;;;14.25;8.07;;;;;;;;;;4898622;29;20029;-81
2021/09/20 06:37:08;;;;;;;10.40;7.47;;;;;;;;;;4897451;29;20426;-75
2021/09/20 06:39:34;;;;;;;12.98;7.68;;;;;;;;;;4896845;29;20115;-81
2021/09/20 06:42:02;;;;;;;13.80;7.68;;;;;;;;;;4898680;29;20032;-78
2021/09/20 06:44:28;;;;;;;12.68;7.88;;;;;;;;;;4897274;29;20041;-79
2021/09/20 06:46:55;;;;;;;13.10;7.38;;;;;;;;;;4897496;29;20036;-77
2021/09/20 06:49:22;;;;;;;11.27;7.28;;;;;;;;;;4897372;29;20478;-87
2021/09/20 06:51:50;;;;;;;11.95;7.57;;;;;;;;;;4897568;29;20367;-83
2021/09/20 06:54:17;;;;;;;10.85;7.40;;;;;;;;;;4898678;29;20092;-82
2021/09/20 06:56:43;;;;;;;12.15;7.45;;;;;;;;;;4896999;29;20031;-76
2021/09/20 06:59:09;;;;;;;11.15;6.72;;;;;;;;;;4897180;29;20462;-88
2021/09/20 07:01:35;;;;;;;10.63;6.85;;;;;;;;;;4897035;29;20024;-84
2021/09/20 07:04:01;;;;;;;11.40;6.82;;;;;;;;;;4897162;29;20033;-77
2021/09/20 07:06:27;;;;;;;11.40;7.05;;;;;;;;;;4897185;29;20032;-81
2021/09/20 07:08:53;;;;;;;11.30;7.63;;;;;;;;;;4897259;29;20484;-78
2021/09/20 07:11:20;;;;;;;10.90;6.85;;;;;;;;;;4897167;29;20068;-76
2021/09/20 07:13:47;;;;;;;12.27;6.72;;;;;;;;;;4897237;29;20627;-81
2021/09/20 07:16:13;;;;;;;11.30;6.47;;;;;;;;;;4896927;29;20486;-75
2021/09/20 07:18:39;;;;;;;9.68;6.28;;;;;;;;;;4898382;29;20033;-76
2021/09/20 07:21:06;;;;;;;11.65;6.70;;;;;;;;;;4897196;29;20033;-81
2021/09/20 07:23:32;;;;;;;9.75;5.97;;;;;;;;;;4898635;29;20366;-76
2021/09/20 07:25:58;;;;;;;11.65;6.85;;;;;;;;;;4897040;29;20036;-88
2021/09/20 07:28:24;;;;;;;10.82;6.93;;;;;;;;;;4896890;29;20029;-77
2021/09/20 07:30:50;;;;;;;12.65;6.80;;;;;;;;;;4896927;29;20035;-89
2021/09/20 07:33:17;;;;;;;12.82;7.32;;;;;;;;;;4896794;29;20072;-88
2021/09/20 07:35:43;;;;;;;10.77;6.80;;;;;;;;;;4898022;29;20035;-88
2021/09/20 07:38:09;;;;;;;11.80;6.95;;;;;;;;;;4897217;29;20032;-77
2021/09/20 07:40:35;;;;;;;10.80;6.40;;;;;;;;;;4896673;29;20055;-87
2021/09/20 07:43:02;;;;;;;14.05;7.10;;;;;;;;;;4897147;29;20455;-85
2021/09/20 07:45:29;;;;;;;10.85;6.45;;;;;;;;;;4896842;29;20044;-80
2021/09/20 07:47:55;;;;;;;11.25;6.57;;;;;;;;;;4898104;29;20410;-78
2021/09/20 07:50:22;;;;;;;10.75;6.38;;;;;;;;;;4898093;29;20024;-77
2021/09/20 07:52:49;;;;;;;10.00;6.50;;;;;;;;;;4901384;29;20129;-76
2021/09/20 07:55:15;;;;;;;12.45;7.05;;;;;;;;;;4900710;29;20069;-76
2021/09/20 07:57:41;;;;;;;11.45;7.28;;;;;;;;;;4900404;29;20033;-76
2021/09/20 08:00:08;;;;;;;9.68;6.50;;;;;;;;;;4900480;29;20040;-77
2021/09/20 08:02:35;;;;;;;10.57;6.25;;;;;;;;;;4901609;29;20038;-82
2021/09/20 08:05:01;;;;;;;11.52;7.45;;;;;;;;;;4900379;29;20051;-80
2021/09/20 08:07:27;;;;;;;12.30;7.55;;;;;;;;;;4900381;29;20027;-75
2021/09/20 08:09:53;;;;;;;12.75;7.35;;;;;;;;;;4900190;29;20035;-76
2021/09/20 08:12:19;;;;;;;10.30;6.85;;;;;;;;;;4900230;29;20024;-81
2021/09/20 08:14:45;;;;;;;9.32;4.50;;;;;;;;;;4900680;29;20401;-82
2021/09/20 08:17:11;;;;;;;9.65;4.30;;;;;;;;;;4920496;29;20513;-82
2021/09/20 08:19:38;;;;;;;6.13;3.63;;;;;;;;;;4901788;29;20032;-84
2021/09/20 08:22:05;;;;;;;9.48;3.90;;;;;;;;;;4903108;29;20036;-78
2021/09/20 08:24:31;;;;;;;10.00;4.20;;;;;;;;;;4903041;29;20481;-78
2021/09/20 08:26:57;;;;;;;8.38;3.85;;;;;;;;;;4902774;29;20068;-77
2021/09/20 08:29:23;;;;;;;8.40;4.30;;;;;;;;;;4902814;29;20400;-76
2021/09/20 08:31:50;;;;;;;8.00;4.30;;;;;;;;;;4902699;29;20074;-83
2021/09/20 08:34:16;;;;;;;8.18;4.25;;;;;;;;;;4919779;29;20035;-76
2021/09/20 08:36:43;;;;;;;7.38;4.22;;;;;;;;;;4902840;29;20028;-77
2021/09/20 08:39:09;;;;;;;9.65;4.47;;;;;;;;;;4902807;29;20489;-76
2021/09/20 08:41:37;;;;;;;7.20;4.35;;;;;;;;;;4902653;29;20039;-80
2021/09/20 08:44:03;;;;;;;6.25;3.80;;;;;;;;;;4902591;29;20040;-76
2021/09/20 08:46:29;;;;;;;8.23;3.95;;;;;;;;;;4902404;29;20119;-77
2021/09/20 08:48:55;;;;;;;5.75;3.55;;;;;;;;;;4919513;29;20029;-79
2021/09/20 08:51:21;;;;;;;6.25;3.97;;;;;;;;;;4902450;29;20031;-76
2021/09/20 08:53:50;;;;;;;7.18;4.00;;;;;;;;;;4902439;29;20513;-76
2021/09/20 08:56:16;;;;;;;5.97;3.70;;;;;;;;;;4903171;29;20032;-77
2021/09/20 08:58:42;;;;;;;6.97;4.18;;;;;;;;;;4902618;29;20490;-77
2021/09/20 09:01:08;;;;;;;7.65;4.50;;;;;;;;;;4901576;29;20028;-77
2021/09/20 09:03:35;;;;;;;9.85;4.32;;;;;;;;;;4901711;29;20043;-77
2021/09/20 09:06:01;;;;;;;7.75;3.88;;;;;;;;;;4915319;29;20032;-76
2021/09/20 09:08:39;;;;;;;7.63;3.78;;;;;;;;;;4919287;29;20560;-78
2021/09/20 09:11:11;;;;;;;5.88;3.13;;;;;;;;;;4917932;29;20028;-81
2021/09/20 09:13:39;;;;;;;4.75;3.20;;;;;;;;;;4917915;29;20055;-76
2021/09/20 09:16:19;;;;;;;7.15;3.80;;;;;;;;;;4903017;29;20512;-75
2021/09/20 09:19:02;;;;;;;6.15;3.60;;;;;;;;;;4902194;29;20039;-77
2021/09/20 09:21:34;;;;;;;5.32;2.95;;;;;;;;;;4901955;29;20036;-77
2021/09/20 09:24:01;;;;;;;6.18;3.85;;;;;;;;;;4901929;29;20030;-76
2021/09/20 09:26:27;;;;;;;7.15;3.70;;;;;;;;;;4901797;29;20504;-76
2021/09/20 09:28:53;;;;;;;5.20;3.22;;;;;;;;;;4901731;29;20068;-88
2021/09/20 09:31:20;;;;;;;7.47;3.88;;;;;;;;;;4918869;29;20079;-79
2021/09/20 09:33:46;;;;;;;5.72;3.60;;;;;;;;;;4901870;29;20031;-76
2021/09/20 09:36:16;;;;;;;7.13;4.15;;;;;;;;;;4901752;29;20036;-87
2021/09/20 09:38:57;;;;;;;5.93;3.83;;;;;;;;;;4918664;29;20032;-77
2021/09/20 09:41:34;;;;;;;6.03;3.40;;;;;;;;;;4918529;29;20124;-76
2021/09/20 09:44:09;;;;;;;5.70;3.55;;;;;;;;;;4901678;29;20038;-76
2021/09/20 09:46:39;;;;;;;6.88;3.40;;;;;;;;;;4900282;29;20047;-81
2021/09/20 09:49:13;;;;;;;9.45;3.78;;;;;;;;;;4915907;29;20152;-76
2021/09/20 09:51:59;;;;;;;6.07;3.47;;;;;;;;;;4901385;29;20059;-79
2021/09/20 09:54:29;;;;;;;4.95;3.03;;;;;;;;;;4885750;29;20466;-80
2021/09/20 09:57:12;;;;;;;5.07;2.88;;;;;;;;;;4882639;29;20033;-76
2021/09/20 09:59:38;;;;;;;4.60;2.55;;;;;;;;;;4899415;29;20029;-76
2021/09/20 10:02:24;;;;;;;5.60;2.92;;;;;;;;;;4882591;29;20041;-78
2021/09/20 10:04:55;;;;;;;5.07;2.83;;;;;;;;;;4882479;29;20032;-76
2021/09/20 10:07:22;;;;;;;4.75;2.80;;;;;;;;;;4882538;29;20120;-77
2021/09/20 10:09:48;;;;;;;5.22;2.83;;;;;;;;;;4882402;29;20052;-80
2021/09/20 10:12:15;;;;;;;5.93;2.63;;;;;;;;;;4882297;29;20474;-75
2021/09/20 10:14:41;;;;;;;5.85;2.90;;;;;;;;;;4881184;29;20534;-75
2021/09/20 10:17:08;;;;;;;6.15;2.58;;;;;;;;;;4882248;29;20080;-78
2021/09/20 10:19:35;;;;;;;6.07;2.83;;;;;;;;;;4882238;29;20130;-84
2021/09/20 10:22:01;;;;;;;5.18;2.95;;;;;;;;;;4898916;29;20028;-77
2021/09/20 10:24:28;;;;;;;3.33;2.10;;;;;;;;;;4882071;29;20037;-80
2021/09/20 10:26:54;;;;;;;4.07;2.13;;;;;;;;;;4882075;29;20051;-76
2021/09/20 10:29:21;;;;;;;4.88;2.70;;;;;;;;;;4899109;29;20029;-77
2021/09/20 10:31:49;;;;;;;4.22;2.35;;;;;;;;;;4898895;29;20036;-85
2021/09/20 10:34:19;;;;;;;4.80;2.38;;;;;;;;;;4882038;29;20071;-76
2021/09/20 10:36:49;;;;;;;4.28;2.10;;;;;;;;;;4881941;29;20401;-77
2021/09/20 10:39:16;;;;;;;3.97;2.10;;;;;;;;;;4883779;29;20386;-85
2021/09/20 10:41:42;;;;;;;9.07;2.03;;;;;;;;;;4904200;29;20024;-88
2021/09/20 10:44:10;;;;;;;3.38;1.98;;;;;;;;;;4917826;29;20056;-87
2021/09/20 10:46:38;;;;;;;3.75;2.05;;;;;;;;;;4917533;29;20032;-80
2021/09/20 10:49:05;;;;;;;4.57;2.35;;;;;;;;;;4917638;29;20031;-86
2021/09/20 10:51:40;;;;;;;3.92;1.83;;;;;;;;;;4900447;29;20032;-80
2021/09/20 10:54:21;;;;;;;3.92;1.92;;;;;;;;;;4899281;29;20119;-83
2021/09/20 10:56:49;;;;;;;4.03;2.25;;;;;;;;;;4912411;29;20032;-82
2021/09/20 10:59:16;;;;;;;3.50;2.03;;;;;;;;;;4900474;29;20035;-81
2021/09/20 11:01:44;;;;;;;3.15;1.75;;;;;;;;;;4900318;29;20028;-85
2021/09/20 11:04:30;;;;;;;4.28;2.25;;;;;;;;;;4900357;29;20138;-90
2021/09/20 11:07:03;;;;;;;3.10;1.65;;;;;;;;;;4900575;29;20438;-89
2021/09/20 11:09:30;;;;;;;4.43;2.05;;;;;;;;;;4900571;29;20400;-81
2021/09/20 11:12:07;;;;;;;3.72;2.10;;;;;;;;;;4899195;29;20485;-88
2021/09/20 11:14:40;;;;;;;4.20;2.30;;;;;;;;;;4900329;29;20039;-87
2021/09/20 11:17:17;;;;;;;4.15;1.80;;;;;;;;;;4880274;29;20455;-87
2021/09/20 11:19:45;;;;;;;5.68;2.20;;;;;;;;;;4878673;29;20029;-88
2021/09/20 11:22:12;;;;;;;5.32;2.78;;;;;;;;;;4878527;29;20036;-81
2021/09/20 11:24:55;;;;;;;4.40;2.78;;;;;;;;;;4882631;29;20498;-88
2021/09/20 11:27:28;;;;;;;3.38;2.00;;;;;;;;;;4899535;29;20039;-88
2021/09/20 11:30:18;;;;;;;4.78;2.60;;;;;;;;;;4900996;29;20045;-88
2021/09/20 11:32:44;;;;;;;8.48;2.80;;;;;;;;;;4888696;29;20075;-89
2021/09/20 11:35:11;;;;;;;4.45;2.35;;;;;;;;;;4882360;29;20506;-88
2021/09/20 11:37:37;;;;;;;4.65;2.30;;;;;;;;;;4881917;29;20036;-89
2021/09/20 11:40:06;;;;;;;5.35;2.42;;;;;;;;;;4887826;29;20029;-89
2021/09/20 11:42:43;;;;;;;3.30;1.80;;;;;;;;;;4901932;29;20521;-88
2021/09/20 11:45:17;;;;;;;3.72;2.17;;;;;;;;;;4900072;29;20040;-79
2021/09/20 11:48:04;;;;;;;4.15;2.40;;;;;;;;;;4882769;29;20028;-88
2021/09/20 11:50:36;;;;;;;3.67;2.10;;;;;;;;;;4881765;29;20660;-89
2021/09/20 11:53:03;;;;;;;4.28;2.55;;;;;;;;;;4881905;29;20040;-83
2021/09/20 11:55:31;;;;;;;3.83;2.03;;;;;;;;;;4881744;29;20029;-89
2021/09/20 11:57:59;;;;;;;3.97;2.05;;;;;;;;;;4886071;29;20025;-86
2021/09/20 12:00:26;;;;;;;4.13;2.33;;;;;;;;;;4900451;29;20036;-78
2021/09/20 12:02:53;;;;;;;4.00;2.33;;;;;;;;;;4900101;29;20021;-79
2021/09/20 12:05:21;;;;;;;3.90;1.88;;;;;;;;;;4900316;29;20033;-88
2021/09/20 12:07:49;;;;;;;3.38;1.83;;;;;;;;;;4900197;29;20032;-89
2021/09/20 12:10:17;;;;;;;2.65;1.58;;;;;;;;;;4900227;29;20124;-82
2021/09/20 12:12:45;;;;;;;3.45;1.90;;;;;;;;;;4901645;29;20089;-88
2021/09/20 12:15:13;;;;;;;5.07;1.77;;;;;;;;;;4905293;29;20049;-79
2021/09/20 12:17:48;;;;;;;3.42;1.63;;;;;;;;;;4903306;29;20075;-87
2021/09/20 12:20:16;;;;;;;4.55;1.90;;;;;;;;;;4903061;29;20032;-78
2021/09/20 12:22:43;;;;;;;3.78;1.40;;;;;;;;;;4903143;29;20028;-77
2021/09/20 12:25:22;;;;;;;2.58;1.52;;;;;;;;;;4903328;29;20036;-83
2021/09/20 12:27:49;;;;;;;2.90;1.50;;;;;;;;;;4903367;29;20090;-89
2021/09/20 12:30:19;;;;;;;3.55;1.50;;;;;;;;;;4903063;29;20036;-84
2021/09/20 12:32:45;;;;;;;5.40;1.80;;;;;;;;;;4902962;29;20060;-76
2021/09/20 12:35:11;;;;;;;3.00;1.30;;;;;;;;;;4919971;29;20046;-79
2021/09/20 12:37:37;;;;;;;1.73;1.00;;;;;;;;;;4901882;29;20500;-89
2021/09/20 12:40:20;;;;;;;2.22;1.15;;;;;;;;;;4903108;29;20020;-79
2021/09/20 12:43:05;;;;;;;3.40;1.10;;;;;;;;;;4919885;29;20359;-87
2021/09/20 12:45:36;;;;;;;2.53;1.15;;;;;;;;;;4919642;29;20344;-88
2021/09/20 12:48:02;;;;;;;3.50;1.10;;;;;;;;;;4919817;29;20071;-83
2021/09/20 12:50:36;;;;;;;2.03;1.23;;;;;;;;;;4901995;29;20060;-89
2021/09/20 12:53:02;;;;;;;3.85;1.35;;;;;;;;;;4919895;29;20036;-78
2021/09/20 12:55:33;;;;;;;4.13;1.70;;;;;;;;;;4902728;29;20028;-85
2021/09/20 12:57:59;;;;;;;2.53;1.25;;;;;;;;;;4903558;29;20484;-88
2021/09/20 13:00:32;;;;;;;2.85;1.38;;;;;;;;;;4903167;29;20388;-89
2021/09/20 13:03:10;;;;;;;3.20;1.60;;;;;;;;;;4902697;29;20036;-87
2021/09/20 13:05:46;;;;;;;3.60;1.80;;;;;;;;;;4919499;29;20051;-83
2021/09/20 13:08:13;;;;;;;2.55;1.45;;;;;;;;;;4902430;29;20100;-88
2021/09/20 13:10:45;;;;;;;2.22;1.45;;;;;;;;;;4902539;29;20063;-88
2021/09/20 13:13:12;;;;;;;3.00;1.60;;;;;;;;;;4919439;29;20024;-86
2021/09/20 13:15:44;;;;;;;3.47;1.90;;;;;;;;;;4919276;29;20052;-81
2021/09/20 13:18:21;;;;;;;2.75;1.67;;;;;;;;;;4900731;29;20028;-84
2021/09/20 13:20:47;;;;;;;2.97;1.65;;;;;;;;;;4902113;29;20454;-80
2021/09/20 13:23:15;;;;;;;2.63;1.63;;;;;;;;;;4919136;29;20092;-76
2021/09/20 13:25:44;;;;;;;5.22;2.20;;;;;;;;;;4902100;29;20520;-86
2021/09/20 13:28:13;;;;;;;2.47;1.48;;;;;;;;;;4902040;29;20028;-86
2021/09/20 13:30:41;;;;;;;3.45;1.80;;;;;;;;;;4902120;29;20036;-85
2021/09/20 13:33:07;;;;;;;4.30;1.77;;;;;;;;;;4902481;29;20028;-78
2021/09/20 13:35:36;;;;;;;3.60;2.08;;;;;;;;;;4901944;29;20024;-78
2021/09/20 13:38:03;;;;;;;3.25;1.92;;;;;;;;;;4901917;29;20028;-88
2021/09/20 13:40:29;;;;;;;2.55;1.33;;;;;;;;;;4901965;29;20024;-88
2021/09/20 13:42:56;;;;;;;3.58;1.70;;;;;;;;;;4918895;29;20381;-86
2021/09/20 13:45:22;;;;;;;3.90;1.73;;;;;;;;;;4901902;29;20036;-88
2021/09/20 13:47:49;;;;;;;3.72;1.70;;;;;;;;;;4901323;29;20370;-88
2021/09/20 13:50:15;;;;;;;4.63;1.98;;;;;;;;;;4901621;29;20032;-87
2021/09/20 13:52:42;;;;;;;2.85;1.65;;;;;;;;;;4901671;29;20040;-76
2021/09/20 13:55:09;;;;;;;4.38;1.98;;;;;;;;;;4902065;29;20032;-88
2021/09/20 13:57:35;;;;;;;7.88;1.58;;;;;;;;;;4901699;29;20496;-86
2021/09/20 14:00:03;;;;;;;3.50;1.77;;;;;;;;;;4901826;29;20379;-85
2021/09/20 14:02:29;;;;;;;4.80;2.00;;;;;;;;;;4901606;29;20049;-90
2021/09/20 14:04:55;;;;;;;4.95;1.73;;;;;;;;;;4918476;29;20067;-89
2021/09/20 14:07:21;;;;;;;6.38;2.25;;;;;;;;;;4901453;29;20025;-77
2021/09/20 14:09:49;;;;;;;3.22;1.60;;;;;;;;;;4901309;29;20389;-88
2021/09/20 14:12:15;;;;;;;3.60;2.10;;;;;;;;;;4901544;29;20032;-86
2021/09/20 14:14:41;;;;;;;2.83;1.65;;;;;;;;;;4901015;29;20119;-84
2021/09/20 14:17:07;;;;;;;4.93;2.20;;;;;;;;;;4901523;29;20042;-76
2021/09/20 14:19:34;;;;;;;3.30;1.63;;;;;;;;;;4903266;29;20075;-79
2021/09/20 14:22:00;;;;;;;3.95;1.92;;;;;;;;;;4902257;29;20426;-83
2021/09/20 14:24:26;;;;;;;2.95;1.75;;;;;;;;;;4901145;29;20036;-80
2021/09/20 14:26:53;;;;;;;3.58;1.85;;;;;;;;;;4917945;29;20447;-87
2021/09/20 14:29:19;;;;;;;3.15;1.83;;;;;;;;;;4900924;29;20065;-86
2021/09/20 14:31:45;;;;;;;3.28;2.00;;;;;;;;;;4900723;29;20393;-82
2021/09/20 14:34:11;;;;;;;3.40;1.95;;;;;;;;;;4900748;29;20020;-80
2021/09/20 14:36:38;;;;;;;3.17;1.75;;;;;;;;;;4900827;29;20035;-85
2021/09/20 14:39:04;;;;;;;5.65;1.77;;;;;;;;;;4900891;29;20366;-78
2021/09/20 14:41:31;;;;;;;3.75;1.70;;;;;;;;;;4900801;29;20031;-87